createdAt,value
2019-02-05T00:02:07.095Z,31.7
2019-02-05T00:05:13.156Z,31.7
2019-02-05T00:08:19.099Z,31.8
2019-02-05T00:11:25.065Z,31.8
2019-02-05T00:14:31.030Z,31.8
2019-02-05T00:17:37.294Z,31.8
2019-02-05T00:20:44.992Z,31.8
2019-02-05T00:23:53.923Z,31.8
2019-02-05T00:26:59.887Z,31.8
2019-02-05T00:30:05.840Z,31.8
2019-02-05T00:33:11.718Z,31.8
2019-02-05T00:36:17.837Z,31.8
2019-02-05T00:39:23.876Z,31.9
2019-02-05T00:42:32.140Z,31.9
2019-02-05T00:45:40.558Z,31.9
2019-02-05T00:48:46.516Z,31.9
2019-02-05T00:51:52.574Z,31.9
2019-02-05T00:54:58.454Z,31.9
2019-02-05T00:58:04.495Z,31.9
2019-02-05T01:01:10.668Z,31.9
2019-02-05T01:04:20.520Z,31.9
2019-02-05T01:07:26.480Z,31.9
2019-02-05T01:10:32.654Z,31.8
2019-02-05T01:13:38.696Z,31.7
2019-02-05T01:16:44.760Z,31.8
2019-02-05T01:19:53.170Z,31.7
2019-02-05T01:22:59.240Z,31.7
2019-02-05T01:26:07.048Z,31.7
2019-02-05T01:29:13.100Z,31.6
2019-02-05T01:32:19.287Z,31.6
2019-02-05T01:35:25.197Z,31.6
2019-02-05T01:38:31.263Z,31.5
2019-02-05T01:41:37.261Z,31.4
2019-02-05T01:44:43.315Z,31.4
2019-02-05T01:47:50.309Z,31.3
2019-02-05T01:50:56.346Z,31.4
2019-02-05T01:54:02.719Z,31.2
2019-02-05T01:57:09.499Z,31.2
2019-02-05T02:00:15.459Z,31.2
2019-02-05T02:03:21.519Z,31.2
2019-02-05T02:06:27.578Z,31.1
2019-02-05T02:09:33.649Z,31
2019-02-05T02:12:39.536Z,31
2019-02-05T02:15:45.563Z,30.9
2019-02-05T02:18:52.751Z,30.8
2019-02-05T02:21:58.690Z,30.7
2019-02-05T02:25:04.982Z,30.7
2019-02-05T02:28:11.847Z,30.6
2019-02-05T02:31:17.922Z,30.5
2019-02-05T02:34:26.417Z,30.5
2019-02-05T02:37:32.605Z,30.5
2019-02-05T02:40:38.561Z,30.3
2019-02-05T02:43:44.622Z,30.3
2019-02-05T02:46:50.991Z,30.2
2019-02-05T02:49:58.691Z,30.2
2019-02-05T02:53:04.752Z,30.1
2019-02-05T02:56:10.818Z,30.1
2019-02-05T02:59:16.893Z,30.1
2019-02-05T03:02:22.939Z,30.1
2019-02-05T03:05:28.906Z,30.1
2019-02-05T03:08:34.902Z,30
2019-02-05T03:11:41.025Z,30
2019-02-05T03:14:47.186Z,29.9
2019-02-05T03:17:53.351Z,29.9
2019-02-05T03:20:59.520Z,29.9
2019-02-05T03:24:05.684Z,29.9
2019-02-05T03:27:18.809Z,29.9
2019-02-05T03:30:26.713Z,29.8
2019-02-05T03:33:33.079Z,29.8
2019-02-05T03:36:39.558Z,29.8
2019-02-05T03:39:46.643Z,29.7
2019-02-05T03:42:52.602Z,29.9
2019-02-05T03:45:58.760Z,30.5
2019-02-05T03:49:04.924Z,29.9
2019-02-05T03:52:11.092Z,29.7
2019-02-05T03:55:17.167Z,29.6
2019-02-05T03:58:23.218Z,29.5
2019-02-05T04:01:29.166Z,29.4
2019-02-05T04:04:38.202Z,29.3
2019-02-05T04:07:47.345Z,29.4
2019-02-05T04:10:55.149Z,32.2
2019-02-05T04:14:01.110Z,29.9
2019-02-05T04:17:07.159Z,29.5
2019-02-05T04:20:13.220Z,29.5
2019-02-05T04:23:19.241Z,29.4
2019-02-05T04:26:25.259Z,29.3
2019-02-05T04:29:31.311Z,29.2
2019-02-05T04:32:37.693Z,28.9
2019-02-05T04:35:43.944Z,28.9
2019-02-05T04:38:50.314Z,28.9
2019-02-05T04:41:57.502Z,28.8
2019-02-05T04:45:03.559Z,28.8
2019-02-05T04:48:09.722Z,28.7
2019-02-05T04:51:15.599Z,28.6
2019-02-05T04:54:21.751Z,28.7
2019-02-05T04:57:27.913Z,28.7
2019-02-05T05:00:33.976Z,29.1
2019-02-05T05:03:40.042Z,28.5
2019-02-05T05:06:46.196Z,28.3
2019-02-05T05:09:52.565Z,28.2
2019-02-05T05:13:00.471Z,28.1
2019-02-05T05:16:06.538Z,28.1
2019-02-05T05:19:12.981Z,28.1
2019-02-05T05:22:19.167Z,28.2
2019-02-05T05:25:25.129Z,28.2
2019-02-05T05:28:31.087Z,28.3
2019-02-05T05:31:37.149Z,28.5
2019-02-05T05:34:43.108Z,28.3
2019-02-05T05:37:49.195Z,28.3
2019-02-05T05:40:55.258Z,28.3
2019-02-05T05:44:01.200Z,28.5
2019-02-05T05:47:10.850Z,28.3
2019-02-05T05:50:16.822Z,28.3
2019-02-05T05:53:27.783Z,28.1
2019-02-05T05:56:33.840Z,28.1
2019-02-05T05:59:39.902Z,28.3
2019-02-05T06:02:45.862Z,28.2
2019-02-05T06:05:52.024Z,28.1
2019-02-05T06:08:58.088Z,28.3
2019-02-05T06:12:06.784Z,28.7
2019-02-05T06:15:12.771Z,28.3
2019-02-05T06:18:18.808Z,28.7
2019-02-05T06:21:24.998Z,28.3
2019-02-05T06:24:31.369Z,28.2
2019-02-05T06:27:37.425Z,28.2
2019-02-05T06:30:43.395Z,28.4
2019-02-05T06:33:51.289Z,28.3
2019-02-05T06:36:57.176Z,28.1
2019-02-05T06:40:03.418Z,28.2
2019-02-05T06:43:10.105Z,28
2019-02-05T06:46:16.368Z,28.4
2019-02-05T06:49:22.338Z,28.1
2019-02-05T06:52:28.400Z,28.1
2019-02-05T06:55:34.461Z,28.4
2019-02-05T06:58:47.268Z,28.6
2019-02-05T07:01:53.342Z,28.5
2019-02-05T07:05:01.670Z,28.6
2019-02-05T07:08:07.717Z,28.1
2019-02-05T07:11:13.982Z,28.4
2019-02-05T07:14:20.645Z,28.3
2019-02-05T07:17:26.717Z,28.6
2019-02-05T07:20:33.797Z,28.4
2019-02-05T07:23:39.864Z,28.2
2019-02-05T07:26:45.897Z,28.4
2019-02-05T07:29:51.885Z,28.1
2019-02-05T07:32:57.847Z,28.6
2019-02-05T07:36:03.901Z,28.5
2019-02-05T07:39:10.163Z,28.1
2019-02-05T07:42:16.350Z,28.1
2019-02-05T07:45:22.819Z,27.8
2019-02-05T07:48:31.223Z,27.9
2019-02-05T07:51:37.296Z,28.2
2019-02-05T07:54:43.350Z,28.3
2019-02-05T07:57:50.632Z,28.2
2019-02-05T08:00:56.722Z,28
2019-02-05T08:04:04.189Z,28.4
2019-02-05T08:07:10.335Z,28.1
2019-02-05T08:10:16.527Z,28.3
2019-02-05T08:13:27.115Z,28.6
2019-02-05T08:16:34.693Z,28.4
2019-02-05T08:19:40.955Z,28.4
2019-02-05T08:22:48.887Z,28.5
2019-02-05T08:25:55.965Z,28.3
2019-02-05T08:29:02.996Z,28.6
2019-02-05T08:32:10.451Z,28.4
2019-02-05T08:35:16.604Z,28.4
2019-02-05T08:38:22.645Z,28.6
2019-02-05T08:41:28.614Z,28.7
2019-02-05T08:44:34.666Z,28.7
2019-02-05T08:47:40.831Z,28.5
2019-02-05T08:50:46.897Z,28.4
2019-02-05T08:53:52.955Z,28.5
2019-02-05T08:56:59.123Z,28.5
2019-02-05T09:00:05.285Z,28.5
2019-02-05T09:03:11.461Z,29
2019-02-05T09:06:17.611Z,28.4
2019-02-05T09:09:23.680Z,28.2
2019-02-05T09:12:29.686Z,28.3
2019-02-05T09:15:35.692Z,28.4
2019-02-05T09:18:42.681Z,28.5
2019-02-05T09:21:50.072Z,28.4
2019-02-05T09:24:56.133Z,28.4
2019-02-05T09:28:02.507Z,28.5
2019-02-05T09:31:10.313Z,28.5
2019-02-05T09:34:16.573Z,28.4
2019-02-05T09:37:23.331Z,28.3
2019-02-05T09:40:29.514Z,28.2
2019-02-05T09:43:35.574Z,28.1
2019-02-05T09:46:41.634Z,28.1
2019-02-05T09:49:47.696Z,28.2
2019-02-05T09:52:53.862Z,28.1
2019-02-05T09:55:59.931Z,28.1
2019-02-05T09:59:06.087Z,28.1
2019-02-05T10:02:12.151Z,28.3
2019-02-05T10:05:18.054Z,28.1
2019-02-05T10:08:24.069Z,28.1
2019-02-05T10:11:30.130Z,28
2019-02-05T10:14:36.296Z,28
2019-02-05T10:17:42.564Z,28
2019-02-05T10:20:48.834Z,27.8
2019-02-05T10:23:54.966Z,27.8
2019-02-05T10:27:01.158Z,27.8
2019-02-05T10:30:09.271Z,27.8
2019-02-05T10:33:15.330Z,27.9
2019-02-05T10:36:21.698Z,27.8
2019-02-05T10:39:28.272Z,27.9
2019-02-05T10:42:34.335Z,28
2019-02-05T10:45:40.403Z,28.1
2019-02-05T10:48:46.458Z,28.2
2019-02-05T10:51:52.637Z,28.3
2019-02-05T10:54:58.688Z,28.2
2019-02-05T10:58:04.745Z,28.1
2019-02-05T11:01:10.719Z,28.2
2019-02-05T11:04:16.869Z,28.2
2019-02-05T11:07:22.951Z,28.2
2019-02-05T11:10:29.198Z,28.1
2019-02-05T11:13:35.262Z,28.2
2019-02-05T11:16:41.534Z,28.2
2019-02-05T11:19:47.716Z,28.1
2019-02-05T11:22:53.860Z,28.3
2019-02-05T11:26:00.343Z,28.2
2019-02-05T11:29:08.043Z,28.2
2019-02-05T11:32:14.965Z,28.2
2019-02-05T11:35:21.283Z,28.3
2019-02-05T11:38:28.781Z,28.3
2019-02-05T11:41:34.959Z,28.2
2019-02-05T11:44:41.176Z,28.3
2019-02-05T11:47:47.689Z,28.4
2019-02-05T11:50:54.765Z,28.5
2019-02-05T11:54:00.727Z,28.8
2019-02-05T11:57:06.894Z,28.7
2019-02-05T12:00:13.162Z,28.9
2019-02-05T12:03:19.363Z,29
2019-02-05T12:06:26.945Z,29
2019-02-05T12:09:33.254Z,28.8
2019-02-05T12:12:40.481Z,28.9
2019-02-05T12:15:46.650Z,28.8
2019-02-05T12:18:53.431Z,28.8
2019-02-05T12:21:59.485Z,28.8
2019-02-05T12:25:05.655Z,28.8
2019-02-05T12:28:12.941Z,28.8
2019-02-05T12:31:18.999Z,28.8
2019-02-05T12:34:26.200Z,28.8
2019-02-05T12:37:34.308Z,28.9
2019-02-05T12:40:40.795Z,29.2
2019-02-05T12:43:47.032Z,29.3
2019-02-05T12:46:53.000Z,29.3
2019-02-05T12:49:59.058Z,29.3
2019-02-05T12:53:05.295Z,29.3
2019-02-05T12:56:11.482Z,29.4
2019-02-05T12:59:17.574Z,29.3
2019-02-05T13:02:23.611Z,29.4
2019-02-05T13:05:29.588Z,29.4
2019-02-05T13:08:37.891Z,29.5
2019-02-05T13:11:44.156Z,29.4
2019-02-05T13:14:50.209Z,29.4
2019-02-05T13:17:56.169Z,29.3
2019-02-05T13:21:02.239Z,29.3
2019-02-05T13:24:09.523Z,29.4
2019-02-05T13:27:19.447Z,29.4
2019-02-05T13:30:27.178Z,29.4
2019-02-05T13:33:33.062Z,29.5
2019-02-05T13:36:39.206Z,29.4
2019-02-05T13:39:45.209Z,29.4
2019-02-05T13:42:51.331Z,29.5
2019-02-05T13:45:59.443Z,29.5
2019-02-05T13:49:05.374Z,29.5
2019-02-05T13:52:13.501Z,29.5
2019-02-05T13:55:19.466Z,29.5
2019-02-05T13:58:25.531Z,29.5
2019-02-05T14:01:31.592Z,29.6
2019-02-05T14:04:37.576Z,29.5
2019-02-05T14:07:43.614Z,29.6
2019-02-05T14:10:49.644Z,29.7
2019-02-05T14:13:55.699Z,29.7
2019-02-05T14:17:01.662Z,29.3
2019-02-05T14:20:08.646Z,29.5
2019-02-05T14:23:16.596Z,29.6
2019-02-05T14:26:22.717Z,29.6
2019-02-05T14:29:29.184Z,29.5
2019-02-05T14:32:35.350Z,29.6
2019-02-05T14:35:41.234Z,29.6
2019-02-05T14:38:47.269Z,29.5
2019-02-05T14:41:53.459Z,29.4
2019-02-05T14:44:59.496Z,29.4
2019-02-05T14:48:05.613Z,29.5
2019-02-05T14:51:11.735Z,29.4
2019-02-05T14:54:19.240Z,29.4
2019-02-05T14:57:25.308Z,29.4
2019-02-05T15:00:31.345Z,29.3
2019-02-05T15:03:37.401Z,29.3
2019-02-05T15:06:44.398Z,29.4
2019-02-05T15:09:50.318Z,29.3
2019-02-05T15:12:56.198Z,29.3
2019-02-05T15:16:02.493Z,29.3
2019-02-05T15:19:08.409Z,29.3
2019-02-05T15:22:14.696Z,29.2
2019-02-05T15:25:21.932Z,29.2
2019-02-05T15:28:27.968Z,29.2
2019-02-05T15:31:34.020Z,29
2019-02-05T15:34:39.913Z,29
2019-02-05T15:37:45.846Z,28.9
2019-02-05T15:40:52.068Z,28.9
2019-02-05T15:44:01.521Z,28.8
2019-02-05T15:47:08.747Z,28.7
2019-02-05T15:50:14.789Z,28.7
2019-02-05T15:53:20.752Z,28.5
2019-02-05T15:56:26.707Z,28.7
2019-02-05T15:59:32.793Z,28.5
2019-02-05T16:02:38.930Z,28.5
2019-02-05T16:05:44.909Z,28.4
2019-02-05T16:08:52.189Z,28.4
2019-02-05T16:11:58.253Z,28.4
2019-02-05T16:15:04.516Z,28.5
2019-02-05T16:18:11.906Z,28.4
2019-02-05T16:21:17.870Z,28.4
2019-02-05T16:24:23.803Z,28.5
2019-02-05T16:27:29.882Z,28.5
2019-02-05T16:30:35.845Z,28.3
2019-02-05T16:33:41.807Z,28.3
2019-02-05T16:36:49.402Z,28.3
2019-02-05T16:39:55.569Z,28.3
2019-02-05T16:43:01.610Z,28.2
2019-02-05T16:46:07.898Z,28.2
2019-02-05T16:49:15.399Z,28.1
2019-02-05T16:52:24.300Z,28
2019-02-05T16:55:30.281Z,28
2019-02-05T16:58:36.344Z,28
2019-02-05T17:01:42.404Z,27.8
2019-02-05T17:04:48.313Z,27.7
2019-02-05T17:07:54.327Z,27.6
2019-02-05T17:11:02.226Z,27.6
2019-02-05T17:14:08.294Z,27.7
2019-02-05T17:17:14.462Z,27.6
2019-02-05T17:20:23.385Z,27.7
2019-02-05T17:23:32.210Z,27.6
2019-02-05T17:26:38.279Z,27.6
2019-02-05T17:29:44.340Z,27.7
2019-02-05T17:32:54.602Z,27.5
2019-02-05T17:36:00.763Z,27.6
2019-02-05T17:39:09.592Z,27.5
2019-02-05T17:42:15.466Z,27.5
2019-02-05T17:45:21.408Z,27.5
2019-02-05T17:48:27.480Z,27.3
2019-02-05T17:51:33.553Z,27.3
2019-02-05T17:54:40.255Z,27.3
2019-02-05T17:57:46.379Z,27.2
2019-02-05T18:00:52.759Z,27.3
2019-02-05T18:03:59.554Z,27.2
2019-02-05T18:07:05.691Z,27.2
2019-02-05T18:10:11.643Z,27.4
2019-02-05T18:13:17.610Z,27.3
2019-02-05T18:16:23.765Z,27.3
2019-02-05T18:19:29.727Z,27.4
2019-02-05T18:22:35.602Z,27.4
2019-02-05T18:25:42.978Z,27.4
2019-02-05T18:28:49.142Z,27.4
2019-02-05T18:31:55.325Z,27.4
2019-02-05T18:35:01.684Z,27.4
2019-02-05T18:38:07.745Z,27.4
2019-02-05T18:41:13.922Z,27.3
2019-02-05T18:44:19.802Z,27.4
2019-02-05T18:47:25.727Z,27.3
2019-02-05T18:50:31.692Z,27.4
2019-02-05T18:53:37.619Z,27.4
2019-02-05T18:56:45.145Z,27.4
2019-02-05T18:59:51.621Z,27.4
2019-02-05T19:02:58.089Z,27.4
2019-02-05T19:06:17.774Z,27.4
2019-02-05T19:09:24.855Z,27.4
2019-02-05T19:12:31.324Z,27.4
2019-02-05T19:15:37.490Z,27.4
2019-02-05T19:18:44.038Z,27.4
2019-02-05T19:21:53.021Z,27.3
2019-02-05T19:24:59.054Z,27.4
2019-02-05T19:28:05.014Z,27.4
2019-02-05T19:31:11.080Z,27.4
2019-02-05T19:34:17.343Z,27.4
2019-02-05T19:37:23.721Z,27.4
2019-02-05T19:40:32.034Z,27.4
2019-02-05T19:43:38.303Z,27.5
2019-02-05T19:46:44.800Z,27.4
2019-02-05T19:49:53.538Z,27.4
2019-02-05T19:53:02.461Z,27.5
2019-02-05T19:56:09.000Z,27.5
2019-02-05T19:59:19.157Z,27.5
2019-02-05T20:02:25.321Z,27.5
2019-02-05T20:05:31.280Z,27.5
2019-02-05T20:08:37.342Z,27.5
2019-02-05T20:11:43.406Z,27.5
2019-02-05T20:14:50.299Z,27.5
2019-02-05T20:17:56.351Z,27.5
2019-02-05T20:21:03.239Z,27.6
2019-02-05T20:24:09.408Z,27.6
2019-02-05T20:27:16.077Z,27.5
2019-02-05T20:30:23.813Z,27.5
2019-02-05T20:33:30.147Z,27.6
2019-02-05T20:36:36.180Z,27.6
2019-02-05T20:39:42.572Z,27.6
2019-02-05T20:42:48.719Z,27.5
2019-02-05T20:45:54.696Z,27.5
2019-02-05T20:49:00.766Z,27.5
2019-02-05T20:52:06.717Z,27.6
2019-02-05T20:55:12.778Z,27.6
2019-02-05T20:58:19.050Z,27.6
2019-02-05T21:01:25.119Z,27.6
2019-02-05T21:04:31.277Z,27.6
2019-02-05T21:07:52.601Z,27.6
2019-02-05T21:10:58.660Z,27.6
2019-02-05T21:14:04.721Z,27.6
2019-02-05T21:17:10.660Z,27.5
2019-02-05T21:20:28.277Z,27.5
2019-02-05T21:23:39.087Z,27.6
2019-02-05T21:26:45.042Z,27.6
2019-02-05T21:29:51.016Z,27.6
2019-02-05T21:32:56.965Z,27.6
2019-02-05T21:36:03.347Z,27.6
2019-02-05T21:39:09.716Z,27.6
2019-02-05T21:42:15.778Z,27.6
2019-02-05T21:45:21.739Z,27.6
2019-02-05T21:48:27.899Z,27.7
2019-02-05T21:51:43.859Z,27.6
2019-02-05T21:54:49.967Z,27.7
2019-02-05T21:57:56.028Z,27.7
2019-02-05T22:01:02.074Z,27.8
2019-02-05T22:04:10.916Z,27.9
2019-02-05T22:07:30.584Z,28
2019-02-05T22:10:36.663Z,28.1
2019-02-05T22:13:43.012Z,28.2
2019-02-05T22:16:49.590Z,28.3
2019-02-05T22:20:01.082Z,28.3
2019-02-05T22:23:07.244Z,28.4
2019-02-05T22:26:13.306Z,28.4
2019-02-05T22:29:19.368Z,28.4
2019-02-05T22:32:25.633Z,28.4
2019-02-05T22:35:31.642Z,28.5
2019-02-05T22:38:37.657Z,28.5
2019-02-05T22:41:43.728Z,28.6
2019-02-05T22:44:49.830Z,28.6
2019-02-05T22:47:55.957Z,28.6
2019-02-05T22:51:02.532Z,28.7
2019-02-05T22:54:10.444Z,28.7
2019-02-05T22:57:16.745Z,28.8
2019-02-05T23:00:22.752Z,28.9
2019-02-05T23:03:29.015Z,28.9
2019-02-05T23:06:37.534Z,28.9
2019-02-05T23:09:43.518Z,28.9
2019-02-05T23:12:49.560Z,29
2019-02-05T23:15:55.619Z,29
2019-02-05T23:19:01.699Z,29
2019-02-05T23:22:07.761Z,29.1
2019-02-05T23:25:13.919Z,29
2019-02-05T23:28:19.882Z,29
2019-02-05T23:31:27.992Z,29.1
2019-02-05T23:34:34.076Z,29.1
2019-02-05T23:37:40.226Z,29.2
2019-02-05T23:40:46.173Z,29.1
2019-02-05T23:43:52.241Z,29.2
2019-02-05T23:46:58.200Z,29.1
2019-02-05T23:50:04.255Z,29.3
2019-02-05T23:53:10.312Z,29.3
2019-02-05T23:56:26.344Z,29.3
2019-02-05T23:59:32.370Z,29.3
